createdAt,value
2023-03-04T00:02:07.663Z,22.35
2023-03-04T00:05:11.454Z,20.00
2023-03-04T00:08:13.967Z,21.48
2023-03-04T00:11:16.091Z,19.98
2023-03-04T00:14:18.347Z,20.50
2023-03-04T00:17:21.525Z,19.30
2023-03-04T00:20:23.736Z,20.73
2023-03-04T00:23:25.955Z,15.25
2023-03-04T00:26:28.162Z,19.58
2023-03-04T00:29:30.464Z,20.35
2023-03-04T00:32:32.739Z,21.10
2023-03-04T00:35:35.042Z,17.92
2023-03-04T00:38:37.607Z,19.25
2023-03-04T00:41:39.925Z,19.42
2023-03-04T00:44:43.377Z,20.90
2023-03-04T00:47:45.593Z,19.60
2023-03-04T00:50:49.261Z,20.33
2023-03-04T00:53:52.430Z,19.23
2023-03-04T00:56:54.612Z,20.75
2023-03-04T00:59:56.778Z,21.25
2023-03-04T01:02:59.893Z,21.65
2023-03-04T01:06:02.300Z,19.95
2023-03-04T01:09:04.487Z,19.52
2023-03-04T01:12:08.087Z,18.00
2023-03-04T01:15:13.830Z,19.60
2023-03-04T01:18:16.138Z,18.73
2023-03-04T01:21:18.457Z,19.13
2023-03-04T01:24:20.613Z,18.05
2023-03-04T01:27:22.708Z,17.95
2023-03-04T01:30:26.073Z,19.83
2023-03-04T01:33:28.912Z,19.08
2023-03-04T01:36:31.176Z,17.20
2023-03-04T01:39:33.533Z,19.73
2023-03-04T01:42:36.663Z,16.98
2023-03-04T01:45:40.258Z,16.65
2023-03-04T01:48:44.955Z,18.15
2023-03-04T01:51:54.053Z,17.67
2023-03-04T01:54:56.500Z,18.27
2023-03-04T01:57:58.761Z,17.90
2023-03-04T02:01:00.890Z,18.13
2023-03-04T02:04:03.470Z,17.77
2023-03-04T02:07:06.633Z,16.77
2023-03-04T02:10:09.701Z,16.90
2023-03-04T02:13:13.261Z,16.73
2023-03-04T02:16:15.587Z,14.70
2023-03-04T02:19:52.982Z,17.45
2023-03-04T02:23:14.588Z,16.42
2023-03-04T02:26:25.078Z,17.27
2023-03-04T02:29:29.672Z,15.73
2023-03-04T02:32:31.943Z,16.15
2023-03-04T02:35:34.829Z,18.52
2023-03-04T02:38:37.243Z,13.43
2023-03-04T02:41:39.741Z,16.40
2023-03-04T02:44:46.547Z,17.63
2023-03-04T02:47:49.496Z,17.95
2023-03-04T02:50:54.173Z,16.60
2023-03-04T02:53:56.435Z,19.83
2023-03-04T02:57:04.640Z,17.65
2023-03-04T03:00:09.907Z,15.68
2023-03-04T03:03:12.501Z,15.80
2023-03-04T03:06:14.815Z,17.20
2023-03-04T03:09:17.637Z,16.90
2023-03-04T03:12:19.953Z,17.25
2023-03-04T03:15:22.657Z,16.73
2023-03-04T03:18:24.874Z,19.55
2023-03-04T03:21:27.065Z,15.50
2023-03-04T03:24:29.266Z,16.40
2023-03-04T03:27:31.592Z,18.33
2023-03-04T03:30:34.259Z,17.77
2023-03-04T03:33:36.582Z,18.30
2023-03-04T03:36:38.949Z,15.35
2023-03-04T03:39:41.455Z,21.35
2023-03-04T03:42:43.713Z,19.05
2023-03-04T03:45:45.965Z,17.88
2023-03-04T03:48:48.145Z,22.73
2023-03-04T03:51:50.265Z,16.63
2023-03-04T03:54:52.481Z,17.98
2023-03-04T03:57:55.139Z,19.80
2023-03-04T04:00:58.547Z,19.02
2023-03-04T04:04:01.098Z,18.65
2023-03-04T04:07:03.405Z,20.38
2023-03-04T04:10:06.314Z,14.15
2023-03-04T04:13:08.839Z,18.88
2023-03-04T04:16:11.810Z,21.08
2023-03-04T04:19:18.902Z,19.42
2023-03-04T04:22:21.788Z,19.85
2023-03-04T04:25:24.142Z,19.70
2023-03-04T04:28:26.297Z,20.05
2023-03-04T04:31:29.513Z,20.33
2023-03-04T04:34:31.799Z,20.02
2023-03-04T04:37:34.061Z,17.77
2023-03-04T04:40:36.304Z,22.33
2023-03-04T04:43:38.436Z,20.73
2023-03-04T04:46:41.135Z,15.02
2023-03-04T04:49:43.345Z,19.88
2023-03-04T04:52:45.545Z,20.02
2023-03-04T04:55:47.705Z,18.73
2023-03-04T04:58:50.136Z,18.08
2023-03-04T05:01:52.373Z,19.80
2023-03-04T05:04:54.476Z,22.73
2023-03-04T05:07:56.683Z,19.98
2023-03-04T05:10:59.249Z,20.10
2023-03-04T05:14:01.385Z,18.52
2023-03-04T05:17:04.115Z,18.60
2023-03-04T05:20:07.271Z,19.23
2023-03-04T05:23:09.505Z,19.80
2023-03-04T05:26:15.288Z,21.58
2023-03-04T05:29:17.483Z,18.95
2023-03-04T05:32:19.835Z,20.88
2023-03-04T05:35:22.188Z,20.65
2023-03-04T05:38:25.676Z,18.83
2023-03-04T05:41:27.948Z,19.30
2023-03-04T05:44:30.106Z,20.15
2023-03-04T05:47:32.451Z,20.13
2023-03-04T05:50:35.102Z,19.90
2023-03-04T05:53:37.770Z,19.88
2023-03-04T05:56:39.909Z,21.90
2023-03-04T05:59:42.059Z,18.40
2023-03-04T06:02:45.055Z,19.35
2023-03-04T06:05:48.234Z,19.17
2023-03-04T06:08:50.441Z,19.77
2023-03-04T06:11:52.618Z,21.90
2023-03-04T06:14:55.345Z,22.10
2023-03-04T06:17:57.606Z,21.10
2023-03-04T06:21:01.676Z,19.55
2023-03-04T06:24:04.039Z,24.15
2023-03-04T06:27:06.407Z,18.92
2023-03-04T06:30:09.442Z,19.75
2023-03-04T06:33:11.961Z,20.27
2023-03-04T06:36:14.147Z,20.00
2023-03-04T06:39:16.503Z,19.42
2023-03-04T06:42:19.573Z,19.05
2023-03-04T06:45:21.739Z,21.48
2023-03-04T06:48:23.867Z,21.95
2023-03-04T06:51:26.150Z,20.48
2023-03-04T06:54:28.337Z,20.10
2023-03-04T06:57:30.451Z,19.45
2023-03-04T07:00:32.678Z,19.90
2023-03-04T07:03:34.869Z,17.30
2023-03-04T07:06:37.012Z,18.98
2023-03-04T07:09:39.423Z,19.63
2023-03-04T07:12:41.585Z,18.25
2023-03-04T07:15:43.781Z,18.25
2023-03-04T07:18:46.712Z,20.40
2023-03-04T07:21:48.900Z,18.38
2023-03-04T07:24:51.069Z,19.58
2023-03-04T07:27:54.178Z,17.17
2023-03-04T07:30:56.288Z,20.90
2023-03-04T07:34:03.899Z,21.20
2023-03-04T07:37:06.274Z,20.48
2023-03-04T07:40:09.356Z,17.77
2023-03-04T07:43:12.781Z,21.08
2023-03-04T07:46:15.495Z,19.08
2023-03-04T07:49:17.715Z,20.00
2023-03-04T07:52:20.227Z,20.27
2023-03-04T07:55:22.318Z,19.95
2023-03-04T07:58:24.942Z,20.95
2023-03-04T08:01:29.987Z,20.52
2023-03-04T08:04:32.312Z,18.02
2023-03-04T08:07:34.713Z,22.70
2023-03-04T08:10:39.861Z,18.08
2023-03-04T08:13:42.430Z,19.25
2023-03-04T08:16:44.687Z,18.10
2023-03-04T08:19:46.877Z,16.65
2023-03-04T08:22:49.032Z,18.77
2023-03-04T08:25:51.411Z,20.05
2023-03-04T08:28:55.028Z,17.20
2023-03-04T08:31:57.546Z,17.58
2023-03-04T08:35:02.481Z,17.52
2023-03-04T08:38:05.646Z,16.10
2023-03-04T08:41:07.903Z,16.33
2023-03-04T08:44:11.053Z,19.27
2023-03-04T08:47:13.467Z,19.70
2023-03-04T08:50:15.844Z,21.45
2023-03-04T08:53:18.862Z,19.58
2023-03-04T08:56:21.206Z,21.95
2023-03-04T08:59:23.360Z,22.27
2023-03-04T09:02:25.584Z,23.02
2023-03-04T09:05:27.718Z,19.45
2023-03-04T09:08:30.303Z,21.17
2023-03-04T09:11:32.520Z,20.17
2023-03-04T09:14:35.972Z,18.13
2023-03-04T09:17:38.543Z,18.73
2023-03-04T09:20:41.192Z,19.30
2023-03-04T09:23:43.510Z,18.65
2023-03-04T09:26:46.122Z,19.73
2023-03-04T09:29:48.373Z,20.30
2023-03-04T09:32:50.636Z,21.50
2023-03-04T09:35:53.023Z,22.23
2023-03-04T09:38:55.210Z,20.10
2023-03-04T09:41:59.014Z,22.30
2023-03-04T09:45:03.321Z,20.55
2023-03-04T09:48:07.071Z,18.17
2023-03-04T09:51:18.673Z,21.83
2023-03-04T09:54:39.539Z,21.35
2023-03-04T09:57:48.987Z,21.80
2023-03-04T10:01:05.296Z,22.07
2023-03-04T10:04:20.514Z,20.55
2023-03-04T10:07:45.574Z,21.23
2023-03-04T10:10:50.754Z,19.25
2023-03-04T10:14:16.558Z,17.77
2023-03-04T10:17:37.168Z,21.48
2023-03-04T10:20:54.375Z,19.02
2023-03-04T10:23:59.765Z,20.15
2023-03-04T10:27:07.173Z,19.80
2023-03-04T10:30:37.757Z,17.45
2023-03-04T10:33:41.274Z,26.20
2023-03-04T10:36:55.537Z,22.23
2023-03-04T10:40:01.525Z,27.55
2023-03-04T10:43:08.147Z,23.27
2023-03-04T10:46:12.533Z,20.30
2023-03-04T10:49:20.180Z,23.90
2023-03-04T10:52:22.287Z,21.50
2023-03-04T10:55:29.822Z,24.83
2023-03-04T10:58:31.997Z,18.15
2023-03-04T11:01:35.082Z,22.42
2023-03-04T11:04:37.180Z,20.75
2023-03-04T11:07:54.659Z,19.52
2023-03-04T11:10:58.168Z,18.08
2023-03-04T11:14:08.966Z,20.48
2023-03-04T11:17:21.912Z,21.15
2023-03-04T11:20:42.711Z,21.42
2023-03-04T11:23:53.294Z,16.35
2023-03-04T11:27:06.666Z,24.70
2023-03-04T11:30:30.017Z,21.60
2023-03-04T11:33:49.858Z,25.75
2023-03-04T11:36:57.991Z,19.77
2023-03-04T11:40:27.791Z,21.92
2023-03-04T11:43:37.107Z,17.77
2023-03-04T11:46:59.275Z,21.90
2023-03-04T11:50:45.722Z,22.48
2023-03-04T11:53:57.849Z,21.33
2023-03-04T11:57:05.185Z,23.58
2023-03-04T12:00:31.169Z,24.10
2023-03-04T12:03:59.099Z,19.02
2023-03-04T12:07:09.587Z,23.45
2023-03-04T12:10:32.866Z,20.90
2023-03-04T12:14:09.535Z,23.40
2023-03-04T12:17:26.748Z,23.65
2023-03-04T12:21:02.309Z,22.10
2023-03-04T12:24:42.650Z,20.40
2023-03-04T12:31:37.075Z,24.17
2023-03-04T12:34:53.046Z,19.55
2023-03-04T12:38:14.033Z,23.10
2023-03-04T12:41:28.513Z,19.85
2023-03-04T12:44:48.235Z,20.40
2023-03-04T12:47:59.335Z,22.48
2023-03-04T12:51:10.984Z,22.75
2023-03-04T12:54:16.032Z,21.63
2023-03-04T12:57:26.456Z,23.83
2023-03-04T13:00:35.018Z,23.17
2023-03-04T13:04:08.255Z,23.52
2023-03-04T13:07:29.022Z,20.38
2023-03-04T13:10:31.747Z,23.77
2023-03-04T13:13:42.403Z,18.20
2023-03-04T13:16:47.143Z,23.30
2023-03-04T13:19:49.300Z,24.95
2023-03-04T13:22:54.532Z,19.30
2023-03-04T13:25:56.713Z,23.23
2023-03-04T13:29:11.044Z,21.95
2023-03-04T13:32:13.465Z,23.02
2023-03-04T13:35:46.976Z,22.20
2023-03-04T13:39:33.220Z,24.38
2023-03-04T13:42:43.389Z,24.05
2023-03-04T13:48:50.371Z,20.98
2023-03-04T13:51:53.074Z,17.08
2023-03-04T13:55:30.305Z,17.42
2023-03-04T13:58:33.774Z,16.08
2023-03-04T14:01:37.659Z,20.13
2023-03-04T14:04:42.363Z,20.33
2023-03-04T14:07:44.651Z,19.15
2023-03-04T14:10:56.187Z,21.05
2023-03-04T14:14:03.244Z,23.00
2023-03-04T14:17:06.954Z,22.60
2023-03-04T14:20:35.020Z,22.08
2023-03-04T14:23:37.267Z,24.65
2023-03-04T14:26:39.684Z,22.88
2023-03-04T14:29:41.881Z,24.60
2023-03-04T14:32:44.178Z,23.65
2023-03-04T14:35:53.316Z,24.95
2023-03-04T14:39:06.900Z,24.52
2023-03-04T14:42:13.491Z,21.40
2023-03-04T14:45:17.449Z,25.83
2023-03-04T14:48:41.000Z,25.10
2023-03-04T14:51:48.979Z,25.33
2023-03-04T14:55:02.177Z,24.40
2023-03-04T14:58:29.100Z,25.10
2023-03-04T15:01:36.071Z,24.85
2023-03-04T15:04:41.126Z,25.48
2023-03-04T15:07:43.694Z,24.20
2023-03-04T15:10:55.896Z,26.42
2023-03-04T15:13:59.819Z,25.83
2023-03-04T15:17:02.049Z,27.90
2023-03-04T15:20:07.310Z,24.05
2023-03-04T15:23:14.729Z,27.00
2023-03-04T15:26:16.989Z,27.17
2023-03-04T15:29:20.988Z,25.52
2023-03-04T15:32:24.144Z,25.63
2023-03-04T15:35:29.895Z,25.65
2023-03-04T15:38:32.243Z,24.92
2023-03-04T15:41:34.891Z,26.88
2023-03-04T15:44:36.946Z,24.15
2023-03-04T15:47:39.075Z,25.52
2023-03-04T15:50:56.368Z,25.80
2023-03-04T15:54:00.236Z,28.45
2023-03-04T15:57:04.022Z,24.77
2023-03-04T16:00:06.990Z,24.88
2023-03-04T16:03:16.493Z,21.13
2023-03-04T16:06:23.422Z,23.52
2023-03-04T16:09:26.556Z,25.52
2023-03-04T16:12:29.312Z,23.63
2023-03-04T16:15:34.378Z,21.88
2023-03-04T16:18:36.669Z,22.13
2023-03-04T16:21:38.793Z,23.48
2023-03-04T16:24:41.385Z,23.80
2023-03-04T16:27:43.826Z,26.02
2023-03-04T16:30:46.416Z,24.50
2023-03-04T16:33:48.576Z,24.95
2023-03-04T16:36:50.775Z,28.42
2023-03-04T16:39:52.960Z,26.63
2023-03-04T16:42:55.692Z,25.60
2023-03-04T16:45:57.857Z,23.70
2023-03-04T16:48:59.900Z,26.15
2023-03-04T16:52:02.158Z,25.40
2023-03-04T16:55:04.816Z,26.85
2023-03-04T16:58:08.385Z,27.88
2023-03-04T17:01:19.852Z,24.50
2023-03-04T17:04:22.962Z,25.95
2023-03-04T17:07:25.441Z,29.92
2023-03-04T17:10:27.849Z,30.48
2023-03-04T17:13:33.142Z,27.52
2023-03-04T17:16:38.460Z,28.35
2023-03-04T17:19:41.271Z,27.52
2023-03-04T17:22:43.980Z,26.90
2023-03-04T17:25:54.658Z,32.53
2023-03-04T17:28:57.920Z,32.38
2023-03-04T17:32:00.408Z,28.77
2023-03-04T17:35:03.365Z,27.20
2023-03-04T17:38:06.418Z,27.85
2023-03-04T17:41:16.193Z,30.10
2023-03-04T17:44:19.497Z,27.33
2023-03-04T17:47:23.286Z,27.13
2023-03-04T17:50:25.538Z,28.35
2023-03-04T17:53:28.858Z,29.75
2023-03-04T17:56:32.761Z,24.92
2023-03-04T17:59:34.886Z,27.40
2023-03-04T18:02:36.962Z,28.75
2023-03-04T18:05:39.860Z,34.88
2023-03-04T18:08:46.214Z,30.95
2023-03-04T18:11:49.024Z,41.63
2023-03-04T18:14:51.173Z,35.35
2023-03-04T18:17:53.279Z,40.35
2023-03-04T18:20:59.477Z,33.08
2023-03-04T18:24:01.887Z,33.50
2023-03-04T18:27:04.036Z,32.78
2023-03-04T18:30:13.368Z,31.52
2023-03-04T18:33:15.561Z,33.47
2023-03-04T18:36:17.729Z,30.42
2023-03-04T18:39:19.948Z,33.40
2023-03-04T18:42:22.136Z,34.55
2023-03-04T18:45:24.315Z,33.20
2023-03-04T18:48:26.582Z,34.55
2023-03-04T18:51:29.062Z,32.28
2023-03-04T18:54:31.195Z,32.28
2023-03-04T18:57:33.571Z,29.80
2023-03-04T19:00:35.852Z,31.67
2023-03-04T19:03:38.996Z,32.15
2023-03-04T19:06:41.373Z,27.83
2023-03-04T19:09:43.546Z,30.33
2023-03-04T19:12:46.055Z,30.08
2023-03-04T19:15:48.601Z,31.67
2023-03-04T19:18:50.792Z,30.83
2023-03-04T19:21:53.018Z,30.25
2023-03-04T19:24:55.207Z,30.88
2023-03-04T19:27:57.347Z,29.15
2023-03-04T19:31:04.512Z,26.88
2023-03-04T19:34:06.678Z,28.83
2023-03-04T19:37:09.086Z,29.23
2023-03-04T19:40:12.196Z,28.45
2023-03-04T19:43:15.154Z,29.88
2023-03-04T19:46:17.455Z,30.00
2023-03-04T19:49:19.917Z,28.95
2023-03-04T19:52:22.118Z,27.45
2023-03-04T19:55:24.923Z,25.15
2023-03-04T19:58:27.205Z,27.60
2023-03-04T20:01:34.901Z,27.65
2023-03-04T20:04:37.148Z,29.73
2023-03-04T20:07:40.435Z,27.15
2023-03-04T20:10:42.838Z,28.45
2023-03-04T20:13:45.020Z,30.65
2023-03-04T20:16:48.104Z,26.60
2023-03-04T20:19:50.325Z,28.88
2023-03-04T20:22:52.440Z,27.67
2023-03-04T20:25:55.890Z,29.08
2023-03-04T20:28:58.721Z,27.63
2023-03-04T20:32:01.619Z,26.55
2023-03-04T20:35:04.076Z,29.10
2023-03-04T20:38:06.956Z,29.77
2023-03-04T20:41:09.200Z,27.88
2023-03-04T20:44:11.362Z,30.88
2023-03-04T20:47:13.539Z,29.88
2023-03-04T20:50:16.563Z,32.00
2023-03-04T20:53:18.734Z,29.88
2023-03-04T20:56:21.073Z,30.00
2023-03-04T20:59:23.340Z,27.60
2023-03-04T21:02:25.655Z,29.25
2023-03-04T21:05:28.124Z,28.88
2023-03-04T21:08:30.716Z,30.73
2023-03-04T21:11:40.378Z,28.02
2023-03-04T21:14:42.669Z,31.92
2023-03-04T21:17:44.847Z,28.02
2023-03-04T21:20:48.550Z,31.25
2023-03-04T21:23:52.682Z,31.27
2023-03-04T21:26:54.999Z,33.47
2023-03-04T21:29:57.469Z,30.88
2023-03-04T21:33:00.504Z,32.47
2023-03-04T21:36:02.688Z,34.85
2023-03-04T21:39:04.840Z,32.33
2023-03-04T21:42:07.107Z,34.47
2023-03-04T21:45:10.891Z,33.63
2023-03-04T21:48:13.068Z,32.95
2023-03-04T21:51:16.811Z,38.88
2023-03-04T21:54:19.335Z,33.47
2023-03-04T21:57:21.514Z,33.78
2023-03-04T22:00:23.832Z,37.05
2023-03-04T22:03:27.265Z,33.72
2023-03-04T22:06:30.609Z,32.67
2023-03-04T22:09:33.557Z,35.55
2023-03-04T22:12:35.679Z,32.80
2023-03-04T22:15:39.759Z,39.17
2023-03-04T22:18:42.483Z,34.83
2023-03-04T22:21:44.636Z,32.40
2023-03-04T22:24:46.849Z,35.97
2023-03-04T22:27:49.021Z,32.95
2023-03-04T22:30:51.264Z,41.03
2023-03-04T22:33:53.489Z,44.40
2023-03-04T22:36:55.706Z,37.65
2023-03-04T22:39:58.092Z,38.85
2023-03-04T22:43:00.346Z,42.17
2023-03-04T22:46:30.458Z,42.05
2023-03-04T22:49:33.527Z,36.42
2023-03-04T22:52:35.741Z,33.45
2023-03-04T22:55:38.193Z,30.67
2023-03-04T22:58:41.522Z,30.42
2023-03-04T23:01:43.735Z,31.40
2023-03-04T23:04:45.849Z,34.63
2023-03-04T23:07:49.289Z,29.92
2023-03-04T23:10:51.492Z,39.03
2023-03-04T23:13:54.788Z,30.92
2023-03-04T23:16:56.975Z,33.95
2023-03-04T23:19:59.164Z,33.22
2023-03-04T23:23:01.348Z,32.80
2023-03-04T23:26:04.809Z,32.90
2023-03-04T23:29:09.716Z,28.88
2023-03-04T23:32:12.005Z,33.65
2023-03-04T23:35:14.282Z,28.10
2023-03-04T23:38:16.490Z,31.50
2023-03-04T23:41:24.653Z,25.27
2023-03-04T23:44:27.003Z,29.05
2023-03-04T23:47:29.646Z,27.15
2023-03-04T23:50:32.371Z,32.65
2023-03-04T23:53:34.634Z,34.97
2023-03-04T23:56:36.822Z,30.70
2023-03-04T23:59:39.827Z,28.05
